• Join FlightAware (Why Join?)
  • Login
  • US Flag 
06:19PM EDT


 

Airport Tracker/Info


-or-


 

Live Flight TrackerFlight Track Log ✈ N102VU ✈ 22-Dec-2013 ✈ TN35 - KTHA

Flight Track Log - Related Links

Times and Time Zones

All times are in EST time to prevent confusion due to time zone crossing. See the N102VU flight status page for this flight to view local times or setup timezone preferences in your user account.

Time Position Orientation Groundspeed Altitude Reporting Facility
EST Latitude Longitude Course Direction KTS MPH feet Rate Location/Type
10:43AM 36.1333 -86.8000 148° Southeast 59 68 800  Level Nashville TRACON
10:43AM 36.1333 -86.8000 148° Southeast 59 68 1,100 900 Climbing Nashville TRACON
10:44AM 36.1167 -86.7833 141° Southeast 90 104 1,900 840 Climbing Nashville TRACON
10:45AM 36.1000 -86.7667 141° Southeast 101 116 2,800 1,020 Climbing Nashville TRACON
10:46AM 36.0833 -86.7500 141° Southeast 86 99 4,000 600 Climbing Nashville TRACON
10:47AM 36.0500 -86.7333 158° South 111 128 4,100 420 Climbing Nashville TRACON
10:48AM 36.0333 -86.7167 141° Southeast 106 122 4,900 420 Climbing Nashville TRACON
10:49AM 35.9584 -86.6622 148° Southeast  Level FlightAware Approximate
10:49AM 36.0000 -86.7000 158° South 105 121 5,000  Level Nashville TRACON
10:50AM 35.9667 -86.6833 158° South 118 136 5,100  Climbing Nashville TRACON
10:51AM 35.9500 -86.6500 122° Southeast 119 137 5,000 -60 Descending Nashville TRACON
10:52AM 35.9167 -86.6333 158° South 119 137 5,000  Level Nashville TRACON
10:53AM 35.9061 -86.6289 161° South 119 137 5,000  Level Memphis Center
10:54AM 35.8775 -86.6072 148° Southeast 119 137 5,000  Level Memphis Center
10:55AM 35.8486 -86.5864 150° Southeast 119 137 5,000 -60 Level Memphis Center
10:56AM 35.8189 -86.5644 149° Southeast 121 139 4,900 -60 Descending Memphis Center
10:57AM 35.7897 -86.5431 149° Southeast 121 139 4,900  Level Memphis Center
10:58AM 35.7608 -86.5225 150° Southeast 119 137 4,900  Level Memphis Center
10:59AM 35.7283 -86.4994 150° Southeast 115 132 4,900  Level Memphis Center
11:00AM 35.7006 -86.4758 145° Southeast 117 135 4,900  Level Memphis Center
11:01AM 35.6878 -86.4292 109° East 132 152 4,900  Level Memphis Center
11:02AM 35.6614 -86.3997 138° Southeast 128 147 4,900 -300 Level Memphis Center
11:03AM 35.6394 -86.3644 127° Southeast 128 147 4,400 -600 Descending Memphis Center
11:04AM 35.6164 -86.3286 128° Southeast 130 150 3,700 -720 Descending Memphis Center
11:05AM 35.5936 -86.2933 128° Southeast 131 151 3,000 -420 Descending Memphis Center
11:06AM 35.5725 -86.2625 130° Southeast 121 139 2,900 -120 Descending Memphis Center
11:07AM 35.5489 -86.2478 153° Southeast 114 131 2,800 -300 Descending Memphis Center
11:08AM 35.5253 -86.2444 173° South 95 109 2,400 -240 Descending Memphis Center
11:09AM 35.4964 -86.2436 179° South 89 102 2,400  Level Memphis Center
11:10AM 35.4733 -86.2436 180° South 86 99 2,500 -60 Climbing Memphis Center
11:11AM 35.4500 -86.2436 180° South 85 98 2,300 -240 Descending Memphis Center
11:13AM 35.4174 -86.2369 170° South  Level FlightAware Approximate